createdAt,value
2022-09-07T00:00:12.958Z,93.60
2022-09-07T00:02:39.911Z,93.70
2022-09-07T00:05:07.144Z,93.60
2022-09-07T00:07:34.129Z,93.60
2022-09-07T00:10:01.083Z,93.50
2022-09-07T00:12:27.972Z,93.50
2022-09-07T00:14:54.969Z,93.60
2022-09-07T00:17:24.188Z,93.70
2022-09-07T00:19:51.271Z,93.80
2022-09-07T00:22:18.198Z,93.90
2022-09-07T00:24:45.066Z,94.00
2022-09-07T00:27:11.943Z,94.00
2022-09-07T00:29:39.089Z,94.00
2022-09-07T00:32:05.985Z,94.00
2022-09-07T00:34:33.160Z,94.00
2022-09-07T00:37:00.389Z,94.00
2022-09-07T00:39:27.382Z,94.00
2022-09-07T00:41:54.301Z,94.00
2022-09-07T00:44:43.077Z,94.00
2022-09-07T00:47:36.200Z,94.20
2022-09-07T00:50:14.131Z,94.10
2022-09-07T00:52:41.550Z,94.00
2022-09-07T00:55:10.645Z,94.00
2022-09-07T00:57:38.611Z,93.90
2022-09-07T01:00:06.096Z,93.90
2022-09-07T01:02:33.169Z,93.90
2022-09-07T01:05:28.129Z,93.90
2022-09-07T01:07:56.289Z,94.10
2022-09-07T01:10:27.927Z,94.10
2022-09-07T01:12:55.183Z,94.20
2022-09-07T01:15:22.163Z,94.20
2022-09-07T01:18:00.767Z,94.30
2022-09-07T01:21:02.708Z,94.40
2022-09-07T01:23:50.840Z,94.70
2022-09-07T01:26:26.392Z,94.40
2022-09-07T01:29:03.946Z,94.50
2022-09-07T01:31:39.326Z,94.50
2022-09-07T01:34:27.608Z,94.60
2022-09-07T01:37:33.113Z,94.60
2022-09-07T01:40:20.264Z,94.70
2022-09-07T01:42:56.449Z,95.00
2022-09-07T01:45:26.036Z,94.80
2022-09-07T01:47:55.237Z,94.70
2022-09-07T01:50:32.524Z,94.60
2022-09-07T01:53:02.481Z,94.50
2022-09-07T01:55:57.560Z,94.40
2022-09-07T01:58:25.648Z,94.40
2022-09-07T02:01:17.531Z,94.70
2022-09-07T02:03:50.505Z,94.50
2022-09-07T02:06:39.533Z,94.50
2022-09-07T02:09:34.039Z,94.60
2022-09-07T02:12:03.196Z,94.70
2022-09-07T02:14:41.194Z,94.70
2022-09-07T02:17:14.730Z,94.80
2022-09-07T02:19:44.415Z,94.80
2022-09-07T02:22:14.849Z,94.80
2022-09-07T02:24:45.254Z,94.90
2022-09-07T02:27:17.715Z,94.90
2022-09-07T02:29:44.712Z,94.90
2022-09-07T02:32:11.644Z,94.90
2022-09-07T02:34:38.894Z,94.90
2022-09-07T02:37:06.500Z,94.90
2022-09-07T02:39:34.857Z,95.00
2022-09-07T02:42:01.982Z,95.00
2022-09-07T02:44:34.682Z,95.10
2022-09-07T02:47:14.501Z,95.10
2022-09-07T02:50:01.289Z,95.20
2022-09-07T02:53:06.578Z,95.20
2022-09-07T02:55:58.507Z,95.30
2022-09-07T02:58:55.383Z,95.20
2022-09-07T03:01:40.347Z,95.20
2022-09-07T03:04:20.897Z,95.20
2022-09-07T03:07:10.448Z,95.20
2022-09-07T03:09:39.904Z,95.30
2022-09-07T03:12:10.178Z,95.30
2022-09-07T03:14:39.688Z,95.30
2022-09-07T03:17:15.450Z,95.30
2022-09-07T03:19:43.611Z,95.30
2022-09-07T03:22:10.748Z,95.20
2022-09-07T03:24:37.658Z,95.20
2022-09-07T03:27:04.661Z,95.20
2022-09-07T03:29:31.614Z,95.20
2022-09-07T03:32:00.557Z,95.20
2022-09-07T03:34:28.703Z,95.40
2022-09-07T03:36:55.633Z,95.10
2022-09-07T03:39:23.935Z,95.10
2022-09-07T03:41:50.971Z,95.10
2022-09-07T03:44:17.921Z,95.10
2022-09-07T03:46:44.787Z,95.10
2022-09-07T03:49:11.923Z,95.10
2022-09-07T03:51:39.441Z,95.00
2022-09-07T03:54:06.362Z,95.10
2022-09-07T03:56:33.885Z,95.00
2022-09-07T03:59:00.794Z,95.00
2022-09-07T04:01:28.095Z,95.00
2022-09-07T04:04:02.227Z,95.00
2022-09-07T04:06:29.700Z,95.00
2022-09-07T04:08:56.699Z,94.90
2022-09-07T04:11:23.737Z,94.90
2022-09-07T04:13:50.600Z,94.80
2022-09-07T04:16:20.013Z,94.80
2022-09-07T04:18:47.162Z,94.80
2022-09-07T04:21:14.118Z,94.80
2022-09-07T04:23:41.430Z,94.70
2022-09-07T04:26:13.960Z,94.70
2022-09-07T04:28:41.079Z,94.70
2022-09-07T04:31:08.452Z,94.70
2022-09-07T04:33:35.460Z,94.70
2022-09-07T04:36:02.714Z,94.80
2022-09-07T04:38:30.075Z,94.90
2022-09-07T04:41:09.399Z,95.00
2022-09-07T04:43:37.144Z,95.10
2022-09-07T04:46:08.680Z,95.10
2022-09-07T04:48:35.688Z,95.20
2022-09-07T04:51:06.632Z,95.30
2022-09-07T04:53:34.490Z,95.30
2022-09-07T04:56:02.068Z,95.40
2022-09-07T04:58:29.242Z,95.40
2022-09-07T05:01:01.853Z,95.40
2022-09-07T05:03:30.097Z,95.50
2022-09-07T05:05:57.084Z,95.50
2022-09-07T05:08:24.211Z,95.50
2022-09-07T05:10:52.264Z,95.60
2022-09-07T05:13:19.450Z,95.60
2022-09-07T05:15:46.570Z,95.70
2022-09-07T05:18:13.880Z,95.70
2022-09-07T05:20:41.452Z,95.70
2022-09-07T05:23:08.717Z,95.70
2022-09-07T05:25:35.750Z,95.80
2022-09-07T05:28:03.832Z,95.80
2022-09-07T05:33:17.560Z,95.80
2022-09-07T05:35:44.475Z,95.80
2022-09-07T05:38:11.389Z,95.80
2022-09-07T05:40:40.717Z,95.90
2022-09-07T05:43:09.548Z,95.90
2022-09-07T05:45:36.520Z,95.90
2022-09-07T05:48:03.527Z,95.90
2022-09-07T05:50:34.012Z,96.00
2022-09-07T05:53:07.849Z,95.90
2022-09-07T05:55:36.535Z,96.00
2022-09-07T05:58:04.707Z,96.00
2022-09-07T06:00:31.748Z,96.00
2022-09-07T06:02:58.941Z,96.00
2022-09-07T06:05:25.918Z,96.00
2022-09-07T06:07:53.138Z,96.00
2022-09-07T06:13:07.106Z,96.00
2022-09-07T06:15:34.796Z,95.90
2022-09-07T06:18:01.819Z,95.90
2022-09-07T06:20:28.764Z,95.90
2022-09-07T06:22:55.693Z,95.90
2022-09-07T06:25:22.611Z,95.90
2022-09-07T06:27:49.618Z,95.90
2022-09-07T06:30:17.781Z,95.90
2022-09-07T06:32:45.132Z,96.40
2022-09-07T06:35:14.744Z,96.30
2022-09-07T06:37:41.672Z,96.20
2022-09-07T06:40:10.565Z,96.10
2022-09-07T06:42:37.794Z,96.00
2022-09-07T06:45:04.877Z,95.90
2022-09-07T06:47:31.713Z,95.80
2022-09-07T06:49:59.140Z,95.70
2022-09-07T06:52:26.907Z,95.60
2022-09-07T06:55:01.247Z,95.50
2022-09-07T06:57:28.538Z,95.40
2022-09-07T06:59:55.369Z,95.40
2022-09-07T07:02:22.133Z,95.30
2022-09-07T07:04:49.630Z,95.20
2022-09-07T07:07:16.627Z,95.20
2022-09-07T07:09:43.506Z,95.20
2022-09-07T07:12:10.621Z,95.10
2022-09-07T07:14:40.985Z,95.10
2022-09-07T07:17:11.006Z,95.00
2022-09-07T07:19:37.767Z,94.80
2022-09-07T07:24:51.403Z,94.40
2022-09-07T07:27:18.243Z,94.20
2022-09-07T07:29:45.799Z,94.00
2022-09-07T07:32:12.704Z,93.70
2022-09-07T07:34:39.558Z,93.50
2022-09-07T07:37:06.333Z,93.30
2022-09-07T07:42:21.248Z,92.80
2022-09-07T07:44:48.732Z,92.60
2022-09-07T07:47:15.612Z,92.50
2022-09-07T07:49:42.441Z,92.40
2022-09-07T07:54:53.575Z,92.40
2022-09-07T07:57:20.538Z,92.20
2022-09-07T07:59:47.312Z,92.00
2022-09-07T08:02:15.108Z,91.80
2022-09-07T08:04:42.020Z,91.80
2022-09-07T08:07:11.062Z,91.80
2022-09-07T08:09:41.789Z,91.90
2022-09-07T08:12:09.066Z,91.80
2022-09-07T08:14:40.821Z,91.70
2022-09-07T08:19:55.836Z,91.10
2022-09-07T08:22:22.780Z,91.10
2022-09-07T08:24:49.529Z,90.70
2022-09-07T08:27:18.850Z,90.50
2022-09-07T08:29:45.634Z,90.20
2022-09-07T08:32:15.388Z,90.00
2022-09-07T08:34:42.137Z,89.90
2022-09-07T08:37:08.902Z,89.80
2022-09-07T08:39:36.711Z,89.50
2022-09-07T08:42:22.393Z,89.30
2022-09-07T08:44:51.188Z,88.90
2022-09-07T08:47:29.630Z,88.50
2022-09-07T08:50:11.795Z,88.10
2022-09-07T08:52:41.396Z,87.70
2022-09-07T08:55:27.791Z,87.40
2022-09-07T08:58:45.223Z,87.30
2022-09-07T09:04:17.972Z,87.30
2022-09-07T09:06:45.477Z,87.50
2022-09-07T09:09:37.956Z,87.50
2022-09-07T09:12:48.677Z,87.40
2022-09-07T09:15:15.721Z,87.40
2022-09-07T09:17:53.314Z,87.20
2022-09-07T09:20:40.378Z,86.80
2022-09-07T09:23:12.211Z,86.40
2022-09-07T09:29:45.868Z,85.70
2022-09-07T09:32:39.751Z,85.40
2022-09-07T09:35:34.081Z,84.90
2022-09-07T09:42:19.798Z,84.80
2022-09-07T09:48:50.052Z,83.60
2022-09-07T10:06:09.107Z,81.10
2022-09-07T10:08:39.323Z,80.00
2022-09-07T10:19:32.630Z,78.60
2022-09-07T10:22:02.346Z,78.60
2022-09-07T10:24:34.462Z,78.40
2022-09-07T10:27:01.308Z,78.10
2022-09-07T10:29:31.507Z,77.60
2022-09-07T10:32:18.455Z,76.80
2022-09-07T10:34:48.213Z,76.30
2022-09-07T10:37:25.774Z,75.90
2022-09-07T10:40:02.088Z,75.30
2022-09-07T10:42:29.788Z,74.80
2022-09-07T10:45:10.663Z,74.80
2022-09-07T10:47:56.394Z,74.40
2022-09-07T10:50:41.520Z,74.00
2022-09-07T10:53:41.360Z,72.90
2022-09-07T10:56:15.844Z,71.60
2022-09-07T11:01:45.034Z,70.50
2022-09-07T11:04:30.705Z,70.50
2022-09-07T11:07:15.912Z,70.70
2022-09-07T11:09:54.796Z,71.00
2022-09-07T11:12:28.159Z,71.30
2022-09-07T11:15:15.723Z,71.50
2022-09-07T11:17:49.347Z,70.90
2022-09-07T11:20:23.459Z,70.70
2022-09-07T11:22:57.471Z,70.40
2022-09-07T11:25:35.465Z,70.60
2022-09-07T11:28:03.526Z,70.50
2022-09-07T11:30:31.497Z,70.10
2022-09-07T11:33:00.109Z,69.30
2022-09-07T11:35:27.084Z,68.10
2022-09-07T11:38:02.566Z,67.30
2022-09-07T11:40:43.953Z,67.20
2022-09-07T11:43:11.593Z,67.60
2022-09-07T11:45:42.790Z,67.40
2022-09-07T11:48:11.034Z,67.60
2022-09-07T11:50:39.292Z,67.90
2022-09-07T11:53:12.738Z,68.50
2022-09-07T11:55:40.673Z,68.70
2022-09-07T11:58:10.481Z,67.90
2022-09-07T12:01:01.644Z,67.40
2022-09-07T12:03:47.516Z,67.00
2022-09-07T12:06:14.402Z,67.10
2022-09-07T12:08:47.231Z,66.80
2022-09-07T12:11:30.999Z,66.20
2022-09-07T12:14:13.038Z,65.10
2022-09-07T12:16:58.223Z,63.30
2022-09-07T12:19:25.545Z,62.00
2022-09-07T12:21:52.338Z,60.70
2022-09-07T12:24:38.950Z,59.50
2022-09-07T12:27:05.963Z,58.60
2022-09-07T12:29:32.785Z,58.00
2022-09-07T12:32:52.869Z,57.00
2022-09-07T12:34:50.268Z,56.20
2022-09-07T12:37:26.734Z,55.70
2022-09-07T12:40:12.529Z,55.20
2022-09-07T12:42:39.482Z,54.80
2022-09-07T12:45:32.698Z,54.70
2022-09-07T12:47:59.723Z,54.00
2022-09-07T12:50:28.499Z,54.20
2022-09-07T12:53:04.631Z,54.30
2022-09-07T12:56:15.705Z,55.30
2022-09-07T12:58:31.129Z,56.50
2022-09-07T13:01:01.275Z,57.10
2022-09-07T13:03:51.008Z,57.40
2022-09-07T13:07:01.622Z,57.60
2022-09-07T13:09:26.942Z,58.30
2022-09-07T13:11:53.660Z,57.90
2022-09-07T13:14:21.310Z,57.00
2022-09-07T13:19:50.404Z,56.40
2022-09-07T13:22:29.640Z,56.80
2022-09-07T13:24:59.488Z,57.40
2022-09-07T13:27:33.621Z,57.80
2022-09-07T13:30:02.376Z,58.40
2022-09-07T13:35:25.631Z,57.00
2022-09-07T13:37:53.086Z,56.50
2022-09-07T13:40:21.460Z,56.30
2022-09-07T13:42:48.386Z,55.50
2022-09-07T13:45:28.921Z,55.20
2022-09-07T13:48:01.665Z,55.30
2022-09-07T13:50:34.651Z,54.40
2022-09-07T13:53:16.812Z,53.50
2022-09-07T13:55:55.277Z,53.70
2022-09-07T13:58:28.019Z,53.30
2022-09-07T14:00:55.839Z,53.80
2022-09-07T14:03:23.354Z,54.70
2022-09-07T14:05:50.641Z,54.50
2022-09-07T14:08:27.231Z,53.70
2022-09-07T14:10:54.129Z,52.00
2022-09-07T14:13:21.109Z,50.20
2022-09-07T14:15:48.745Z,48.90
2022-09-07T14:18:19.507Z,48.00
2022-09-07T14:20:48.573Z,47.30
2022-09-07T14:23:18.804Z,47.20
2022-09-07T14:28:33.350Z,46.10
2022-09-07T14:31:00.393Z,45.50
2022-09-07T14:33:34.226Z,46.30
2022-09-07T14:36:09.340Z,47.20
2022-09-07T14:39:04.772Z,48.40
2022-09-07T14:41:38.539Z,50.20
2022-09-07T14:44:13.054Z,52.30
2022-09-07T14:46:45.363Z,53.90
2022-09-07T14:49:22.335Z,55.40
2022-09-07T14:52:17.426Z,56.50
2022-09-07T14:54:48.480Z,57.50
2022-09-07T14:57:15.383Z,58.20
2022-09-07T14:59:42.995Z,58.50
2022-09-07T15:02:19.154Z,58.80
2022-09-07T15:04:46.886Z,58.90
2022-09-07T15:07:32.515Z,59.00
2022-09-07T15:10:15.377Z,58.90
2022-09-07T15:12:43.613Z,59.10
2022-09-07T15:15:27.924Z,58.80
2022-09-07T15:18:11.399Z,58.30
2022-09-07T15:20:52.980Z,58.40
2022-09-07T15:23:27.813Z,58.80
2022-09-07T15:26:02.247Z,59.30
2022-09-07T15:34:10.357Z,60.70
2022-09-07T15:36:37.815Z,61.30
2022-09-07T15:39:04.808Z,61.90
2022-09-07T15:41:31.952Z,62.30
2022-09-07T15:43:58.942Z,62.60
2022-09-07T15:46:26.171Z,63.40
2022-09-07T15:48:54.483Z,63.60
2022-09-07T15:54:13.444Z,64.10
2022-09-07T15:56:42.365Z,64.40
2022-09-07T15:59:09.626Z,62.20
2022-09-07T16:01:52.520Z,59.80
2022-09-07T16:04:20.534Z,58.70
2022-09-07T16:06:48.442Z,58.80
2022-09-07T16:09:16.235Z,59.50
2022-09-07T16:11:43.091Z,57.90
2022-09-07T16:14:12.383Z,55.60
2022-09-07T16:19:26.246Z,54.70
2022-09-07T16:21:57.184Z,54.30
2022-09-07T16:24:24.551Z,52.60
2022-09-07T16:26:51.359Z,50.90
2022-09-07T16:29:18.194Z,49.50
2022-09-07T16:34:31.810Z,48.10
2022-09-07T16:36:58.726Z,47.10
2022-09-07T16:39:25.932Z,48.30
2022-09-07T16:41:52.687Z,50.00
2022-09-07T16:44:19.431Z,51.70
2022-09-07T16:46:46.199Z,52.30
2022-09-07T16:49:13.046Z,52.70
2022-09-07T16:51:39.942Z,53.00
2022-09-07T16:54:06.933Z,53.20
2022-09-07T16:56:38.803Z,53.10
2022-09-07T16:59:06.255Z,52.10
2022-09-07T17:01:34.556Z,51.60
2022-09-07T17:04:03.483Z,51.70
2022-09-07T17:06:33.557Z,51.60
2022-09-07T17:09:00.318Z,51.10
2022-09-07T17:11:29.073Z,50.00
2022-09-07T17:13:56.489Z,49.50
2022-09-07T17:16:24.373Z,48.70
2022-09-07T17:21:38.420Z,50.80
2022-09-07T17:24:05.735Z,53.00
2022-09-07T17:26:32.640Z,54.80
2022-09-07T17:29:00.762Z,56.50
2022-09-07T17:34:16.468Z,59.50
2022-09-07T17:36:43.213Z,60.80
2022-09-07T17:39:18.880Z,61.80
2022-09-07T17:41:52.610Z,62.70
2022-09-07T17:44:20.245Z,63.60
2022-09-07T17:46:47.048Z,64.20
2022-09-07T17:49:16.374Z,64.70
2022-09-07T17:51:43.849Z,65.40
2022-09-07T17:54:11.961Z,65.90
2022-09-07T17:56:39.382Z,66.40
2022-09-07T18:01:54.443Z,67.20
2022-09-07T18:04:21.528Z,67.40
2022-09-07T18:06:48.451Z,67.80
2022-09-07T18:09:15.302Z,68.00
2022-09-07T18:11:45.521Z,68.40
2022-09-07T18:14:14.601Z,68.80
2022-09-07T18:16:42.050Z,69.20
2022-09-07T18:19:09.197Z,69.60
2022-09-07T18:21:36.179Z,69.80
2022-09-07T18:24:07.605Z,70.00
2022-09-07T18:26:35.570Z,70.40
2022-09-07T18:29:04.121Z,70.70
2022-09-07T18:31:31.750Z,71.20
2022-09-07T18:33:58.540Z,71.90
2022-09-07T18:36:25.399Z,72.40
2022-09-07T18:38:52.357Z,72.90
2022-09-07T18:41:19.337Z,73.40
2022-09-07T18:43:49.086Z,73.90
2022-09-07T18:46:16.758Z,74.20
2022-09-07T18:48:43.575Z,74.60
2022-09-07T18:51:10.632Z,74.90
2022-09-07T18:53:37.490Z,75.20
2022-09-07T18:56:05.259Z,75.40
2022-09-07T18:58:32.175Z,75.50
2022-09-07T19:01:02.363Z,75.60
2022-09-07T19:03:29.596Z,75.70
2022-09-07T19:05:57.152Z,75.90
2022-09-07T19:08:23.960Z,76.10
2022-09-07T19:10:50.915Z,76.40
2022-09-07T19:13:17.977Z,76.10
2022-09-07T19:15:44.712Z,76.70
2022-09-07T19:18:11.818Z,76.90
2022-09-07T19:20:39.128Z,77.10
2022-09-07T19:23:06.618Z,77.30
2022-09-07T19:25:33.382Z,77.50
2022-09-07T19:28:00.222Z,77.60
2022-09-07T19:30:28.245Z,77.80
2022-09-07T19:32:55.229Z,78.00
2022-09-07T19:35:22.153Z,78.20
2022-09-07T19:37:49.598Z,78.40
2022-09-07T19:40:19.289Z,78.50
2022-09-07T19:42:46.691Z,78.80
2022-09-07T19:45:15.833Z,78.90
2022-09-07T19:47:42.683Z,79.10
2022-09-07T19:50:10.818Z,79.30
2022-09-07T19:52:37.902Z,79.50
2022-09-07T19:55:05.065Z,79.60
2022-09-07T19:57:31.922Z,79.70
2022-09-07T20:00:00.221Z,79.90
2022-09-07T20:02:27.008Z,80.00
2022-09-07T20:04:54.075Z,80.10
2022-09-07T20:07:20.769Z,80.20
2022-09-07T20:09:50.485Z,80.40
2022-09-07T20:12:19.253Z,80.30
2022-09-07T20:14:46.194Z,80.30
2022-09-07T20:17:12.940Z,80.20
2022-09-07T20:19:40.773Z,80.30
2022-09-07T20:22:07.524Z,80.40
2022-09-07T20:24:35.137Z,80.30
2022-09-07T20:27:02.768Z,80.20
2022-09-07T20:29:31.264Z,80.10
2022-09-07T20:31:58.524Z,80.00
2022-09-07T20:34:26.075Z,80.00
2022-09-07T20:36:52.814Z,80.00
2022-09-07T20:39:20.141Z,80.00
2022-09-07T20:41:47.541Z,80.00
2022-09-07T20:44:14.372Z,80.40
2022-09-07T20:46:41.224Z,79.70
2022-09-07T20:49:08.428Z,79.60
2022-09-07T20:51:35.500Z,81.80
2022-09-07T20:54:02.623Z,82.90
2022-09-07T20:56:29.400Z,84.20
2022-09-07T20:58:57.116Z,85.30
2022-09-07T21:01:24.399Z,86.30
2022-09-07T21:03:55.665Z,87.00
2022-09-07T21:06:23.535Z,87.60
2022-09-07T21:08:50.716Z,88.00
2022-09-07T21:11:21.327Z,88.40
2022-09-07T21:13:48.230Z,88.70
2022-09-07T21:16:16.500Z,88.90
2022-09-07T21:18:44.108Z,89.00
2022-09-07T21:21:20.198Z,89.20
2022-09-07T21:23:47.545Z,89.30
2022-09-07T21:26:14.480Z,89.40
2022-09-07T21:28:41.295Z,89.60
2022-09-07T21:31:08.367Z,89.60
2022-09-07T21:33:35.478Z,89.90
2022-09-07T21:36:06.027Z,89.90
2022-09-07T21:38:33.597Z,89.90
2022-09-07T21:41:02.795Z,90.00
2022-09-07T21:43:29.535Z,90.10
2022-09-07T21:45:56.347Z,90.10
2022-09-07T21:48:23.265Z,90.20
2022-09-07T21:50:56.204Z,90.20
2022-09-07T21:53:23.093Z,90.30
2022-09-07T21:55:59.510Z,90.30
2022-09-07T21:58:26.586Z,90.30
2022-09-07T22:00:53.850Z,90.40
2022-09-07T22:03:23.318Z,90.50
2022-09-07T22:05:50.152Z,90.50
2022-09-07T22:08:16.941Z,90.60
2022-09-07T22:10:44.245Z,90.70
2022-09-07T22:13:11.382Z,90.90
2022-09-07T22:15:38.525Z,90.80
2022-09-07T22:18:05.715Z,90.90
2022-09-07T22:20:32.750Z,91.00
2022-09-07T22:23:00.097Z,91.10
2022-09-07T22:25:27.305Z,91.10
2022-09-07T22:27:54.257Z,91.20
2022-09-07T22:30:20.939Z,91.30
2022-09-07T22:32:48.480Z,91.30
2022-09-07T22:35:15.797Z,91.40
2022-09-07T22:37:44.531Z,91.50
2022-09-07T22:40:12.362Z,91.50
2022-09-07T22:42:39.212Z,91.60
2022-09-07T22:45:06.573Z,91.60
2022-09-07T22:47:33.398Z,91.70
2022-09-07T22:50:00.222Z,91.70
2022-09-07T22:52:26.946Z,91.80
2022-09-07T22:54:53.666Z,91.80
2022-09-07T22:57:20.531Z,91.90
2022-09-07T22:59:47.309Z,92.00
2022-09-07T23:02:14.081Z,92.00
2022-09-07T23:04:41.149Z,92.10
2022-09-07T23:07:08.622Z,92.10
2022-09-07T23:09:36.089Z,92.10
2022-09-07T23:12:02.956Z,92.10
2022-09-07T23:14:29.954Z,92.10
2022-09-07T23:16:57.772Z,92.20
2022-09-07T23:19:24.776Z,92.20
2022-09-07T23:21:51.703Z,92.20
2022-09-07T23:24:18.710Z,92.30
2022-09-07T23:26:46.744Z,92.30
2022-09-07T23:29:13.763Z,92.30
2022-09-07T23:31:40.634Z,92.50
2022-09-07T23:34:07.761Z,92.30
2022-09-07T23:36:34.680Z,92.40
2022-09-07T23:39:01.470Z,92.40
2022-09-07T23:41:28.837Z,92.40
2022-09-07T23:43:55.822Z,92.50
2022-09-07T23:46:22.678Z,92.50
2022-09-07T23:48:49.630Z,92.50
2022-09-07T23:51:21.310Z,92.50
2022-09-07T23:53:50.541Z,92.50
2022-09-07T23:56:17.236Z,92.50
2022-09-07T23:58:44.015Z,92.50
